Ragsdale, Indiana
Current Conditions -  °F | °C
As of 1:35 PM on Thursday 30 Oct 2014 (Local Time) from KDCY Reporting Station
Clear Clear  
Wind Chill: 52°   Ceiling: Unl
Heat Index: 52°   Visibility: 7mi
Dew Point: 35°   Wind: 0mph
Humidity: 52%   Direction: NA
Pressure: 30.1"   Gusts: NA
Location:  38.75°N, 87.32°W
Report Text: KDCY 301835Z AUTO 00000KT 7SM CLR 11/02 A3010 RMK AO2 T01110016
Loading
Personal Weather Stations






























Interactive Weather Map
Tropical Storm Tracking
New forecast layout! Learn more

10-Day Weather Forecast

Advertisements
Track Severe Weather on mobile